sensor_id;sensor_type;location;lat;lon;timestamp;pressure;altitude;pressure_sealevel;temperature;humidity
46199;BME280;31928;52.104;10.030;2023-03-24T05:16:16;98848.59;;;16.54;55.14
46199;BME280;31928;52.104;10.030;2023-03-24T05:18:43;98849.63;;;16.58;54.38
46199;BME280;31928;52.104;10.030;2023-03-24T05:21:09;98821.19;;;16.60;53.87
46199;BME280;31928;52.104;10.030;2023-03-24T05:23:36;98816.84;;;16.59;55.16
46199;BME280;31928;52.104;10.030;2023-03-24T05:26:03;98815.47;;;16.62;55.06
46199;BME280;31928;52.104;10.030;2023-03-24T05:28:29;98813.28;;;16.64;53.83
46199;BME280;31928;52.104;10.030;2023-03-24T05:30:56;98804.09;;;16.65;53.99
46199;BME280;31928;52.104;10.030;2023-03-24T05:33:22;98815.41;;;16.67;53.82
46199;BME280;31928;52.104;10.030;2023-03-24T05:35:49;98803.56;;;16.63;54.50
46199;BME280;31928;52.104;10.030;2023-03-24T05:38:16;98818.94;;;16.67;54.21
46199;BME280;31928;52.104;10.030;2023-03-24T05:40:43;98817.28;;;16.71;53.73
46199;BME280;31928;52.104;10.030;2023-03-24T05:43:09;98808.31;;;16.71;54.41
46199;BME280;31928;52.104;10.030;2023-03-24T05:45:37;98825.09;;;16.73;53.91
46199;BME280;31928;52.104;10.030;2023-03-24T05:48:04;98810.47;;;16.74;53.93
46199;BME280;31928;52.104;10.030;2023-03-24T05:50:31;98814.28;;;16.73;54.47
46199;BME280;31928;52.104;10.030;2023-03-24T05:52:58;98800.97;;;16.76;53.96
46199;BME280;31928;52.104;10.030;2023-03-24T05:55:25;98798.53;;;16.75;54.03
46199;BME280;31928;52.104;10.030;2023-03-24T05:57:52;98828.28;;;16.75;54.01
46199;BME280;31928;52.104;10.030;2023-03-24T06:00:19;98792.84;;;16.76;54.18
46199;BME280;31928;52.104;10.030;2023-03-24T06:02:46;98814.22;;;16.78;54.48
46199;BME280;31928;52.104;10.030;2023-03-24T06:05:12;98795.25;;;16.78;54.66
46199;BME280;31928;52.104;10.030;2023-03-24T06:07:39;98803.38;;;16.78;54.56
46199;BME280;31928;52.104;10.030;2023-03-24T06:10:08;98797.97;;;16.78;55.11
46199;BME280;31928;52.104;10.030;2023-03-24T06:12:37;98812.00;;;16.80;55.01
46199;BME280;31928;52.104;10.030;2023-03-24T06:15:04;98800.09;;;16.81;54.46
46199;BME280;31928;52.104;10.030;2023-03-24T06:17:31;98813.13;;;16.79;54.83
46199;BME280;31928;52.104;10.030;2023-03-24T06:19:57;98800.63;;;16.83;53.63
46199;BME280;31928;52.104;10.030;2023-03-24T06:22:32;98814.72;;;16.80;55.83
46199;BME280;31928;52.104;10.030;2023-03-24T06:24:58;98813.56;;;16.85;54.42
46199;BME280;31928;52.104;10.030;2023-03-24T06:27:25;98812.47;;;16.86;54.85
46199;BME280;31928;52.104;10.030;2023-03-24T06:29:56;98810.25;;;16.88;54.36
46199;BME280;31928;52.104;10.030;2023-03-24T06:32:22;98806.47;;;16.89;53.86
46199;BME280;31928;52.104;10.030;2023-03-24T06:34:49;98826.50;;;16.88;54.67
46199;BME280;31928;52.104;10.030;2023-03-24T06:37:16;98827.03;;;16.90;54.60
46199;BME280;31928;52.104;10.030;2023-03-24T06:39:42;98820.53;;;16.91;54.65
46199;BME280;31928;52.104;10.030;2023-03-24T06:42:09;98815.91;;;16.92;54.58
46199;BME280;31928;52.104;10.030;2023-03-24T06:44:36;98841.88;;;16.93;55.48
46199;BME280;31928;52.104;10.030;2023-03-24T06:47:02;98843.78;;;16.92;55.82
46199;BME280;31928;52.104;10.030;2023-03-24T06:49:29;98836.69;;;16.96;55.06
46199;BME280;31928;52.104;10.030;2023-03-24T06:51:56;98865.97;;;16.94;55.32
46199;BME280;31928;52.104;10.030;2023-03-24T06:54:22;98858.44;;;16.91;55.64
46199;BME280;31928;52.104;10.030;2023-03-24T06:56:49;98871.38;;;16.94;55.49
46199;BME280;31928;52.104;10.030;2023-03-24T06:59:15;98896.03;;;16.93;56.39
46199;BME280;31928;52.104;10.030;2023-03-24T07:01:43;98890.38;;;16.89;56.75
46199;BME280;31928;52.104;10.030;2023-03-24T07:04:09;98884.91;;;16.94;55.63
46199;BME280;31928;52.104;10.030;2023-03-24T07:06:36;98873.34;;;16.89;55.67
46199;BME280;31928;52.104;10.030;2023-03-24T07:09:23;98885.56;;;16.86;56.69
46199;BME280;31928;52.104;10.030;2023-03-24T07:11:51;98874.25;;;16.80;56.59
46199;BME280;31928;52.104;10.030;2023-03-24T07:14:17;98873.09;;;16.85;55.15
46199;BME280;31928;52.104;10.030;2023-03-24T07:16:44;98864.47;;;16.83;55.06
46199;BME280;31928;52.104;10.030;2023-03-24T07:19:10;98857.47;;;16.83;54.96
46199;BME280;31928;52.104;10.030;2023-03-24T07:21:37;98860.66;;;16.84;54.71
46199;BME280;31928;52.104;10.030;2023-03-24T07:24:04;98887.09;;;16.69;53.89
46199;BME280;31928;52.104;10.030;2023-03-24T07:26:30;98898.13;;;16.78;53.60
46199;BME280;31928;52.104;10.030;2023-03-24T07:28:57;98895.91;;;16.80;53.68
46199;BME280;31928;52.104;10.030;2023-03-24T07:31:23;98895.41;;;16.78;53.23
46199;BME280;31928;52.104;10.030;2023-03-24T07:33:50;98912.72;;;16.77;52.40
46199;BME280;31928;52.104;10.030;2023-03-24T07:36:17;98919.19;;;16.81;52.68
46199;BME280;31928;52.104;10.030;2023-03-24T07:38:43;98928.88;;;16.86;52.68
46199;BME280;31928;52.104;10.030;2023-03-24T07:41:10;98932.66;;;16.85;52.86
46199;BME280;31928;52.104;10.030;2023-03-24T07:43:36;98923.66;;;16.90;52.57
46199;BME280;31928;52.104;10.030;2023-03-24T07:46:03;98923.44;;;16.86;52.79
46199;BME280;31928;52.104;10.030;2023-03-24T07:48:29;98925.81;;;16.93;52.85
46199;BME280;31928;52.104;10.030;2023-03-24T07:50:56;98932.25;;;16.97;52.82
46199;BME280;31928;52.104;10.030;2023-03-24T07:53:22;98929.91;;;16.90;52.81
46199;BME280;31928;52.104;10.030;2023-03-24T07:55:49;98941.75;;;16.94;52.52
46199;BME280;31928;52.104;10.030;2023-03-24T07:58:15;98951.50;;;16.95;53.14
46199;BME280;31928;52.104;10.030;2023-03-24T08:00:42;98953.63;;;16.98;52.77
46199;BME280;31928;52.104;10.030;2023-03-24T08:03:10;98969.81;;;17.03;52.81
46199;BME280;31928;52.104;10.030;2023-03-24T08:05:40;98956.56;;;17.02;52.77
46199;BME280;31928;52.104;10.030;2023-03-24T08:08:06;98958.16;;;17.03;52.71
46199;BME280;31928;52.104;10.030;2023-03-24T08:10:33;98967.56;;;17.10;52.55
46199;BME280;31928;52.104;10.030;2023-03-24T08:13:00;98975.97;;;17.09;52.59
46199;BME280;31928;52.104;10.030;2023-03-24T08:15:27;98968.59;;;17.14;52.30
46199;BME280;31928;52.104;10.030;2023-03-24T08:17:54;98982.66;;;17.16;52.54
46199;BME280;31928;52.104;10.030;2023-03-24T08:20:22;98983.47;;;17.17;52.15
46199;BME280;31928;52.104;10.030;2023-03-24T08:22:50;98985.31;;;17.21;52.18
46199;BME280;31928;52.104;10.030;2023-03-24T08:25:20;98991.81;;;17.25;52.12
46199;BME280;31928;52.104;10.030;2023-03-24T08:27:47;98997.72;;;17.27;52.03
46199;BME280;31928;52.104;10.030;2023-03-24T08:30:18;99004.69;;;17.33;52.06
46199;BME280;31928;52.104;10.030;2023-03-24T08:32:46;98998.25;;;17.29;51.89
46199;BME280;31928;52.104;10.030;2023-03-24T08:35:14;98997.59;;;17.37;52.11
46199;BME280;31928;52.104;10.030;2023-03-24T08:37:41;98999.47;;;17.42;52.07
46199;BME280;31928;52.104;10.030;2023-03-24T08:40:09;99006.22;;;17.44;52.05
46199;BME280;31928;52.104;10.030;2023-03-24T08:42:40;99015.38;;;17.48;52.21
46199;BME280;31928;52.104;10.030;2023-03-24T08:45:06;99028.31;;;17.51;52.25
46199;BME280;31928;52.104;10.030;2023-03-24T08:47:34;99031.56;;;17.53;51.18
46199;BME280;31928;52.104;10.030;2023-03-24T08:50:01;99038.22;;;17.60;51.71
46199;BME280;31928;52.104;10.030;2023-03-24T08:52:27;99028.66;;;17.68;51.81
46199;BME280;31928;52.104;10.030;2023-03-24T08:54:54;99037.00;;;17.71;48.97
46199;BME280;31928;52.104;10.030;2023-03-24T08:57:20;99053.22;;;17.76;47.70
46199;BME280;31928;52.104;10.030;2023-03-24T08:59:47;99036.00;;;17.86;47.47
46199;BME280;31928;52.104;10.030;2023-03-24T09:02:16;99058.06;;;17.98;48.76
46199;BME280;31928;52.104;10.030;2023-03-24T09:04:43;99054.19;;;18.04;48.89
46199;BME280;31928;52.104;10.030;2023-03-24T09:07:11;99039.97;;;18.11;49.32
46199;BME280;31928;52.104;10.030;2023-03-24T09:09:37;99064.91;;;18.13;47.00
46199;BME280;31928;52.104;10.030;2023-03-24T09:12:05;99043.06;;;18.23;48.12
46199;BME280;31928;52.104;10.030;2023-03-24T09:14:31;99053.34;;;18.26;47.93
46199;BME280;31928;52.104;10.030;2023-03-24T09:16:58;99057.69;;;18.27;47.82
46199;BME280;31928;52.104;10.030;2023-03-24T09:19:24;99066.94;;;18.26;46.89
46199;BME280;31928;52.104;10.030;2023-03-24T09:21:51;99061.56;;;18.21;45.66
46199;BME280;31928;52.104;10.030;2023-03-24T09:24:17;99057.84;;;18.17;45.15
46199;BME280;31928;52.104;10.030;2023-03-24T09:26:44;99040.19;;;18.15;45.94
46199;BME280;31928;52.104;10.030;2023-03-24T09:29:11;99065.28;;;18.07;45.12
46199;BME280;31928;52.104;10.030;2023-03-24T09:31:37;99075.09;;;18.03;45.74
46199;BME280;31928;52.104;10.030;2023-03-24T09:34:04;99071.63;;;17.98;45.71
46199;BME280;31928;52.104;10.030;2023-03-24T09:36:30;99069.06;;;17.88;44.24
46199;BME280;31928;52.104;10.030;2023-03-24T09:38:59;99079.16;;;17.82;44.46
46199;BME280;31928;52.104;10.030;2023-03-24T09:41:27;99087.56;;;17.81;45.37
46199;BME280;31928;52.104;10.030;2023-03-24T09:46:55;99096.34;;;17.73;45.65
46199;BME280;31928;52.104;10.030;2023-03-24T09:49:23;99083.69;;;17.68;45.21
46199;BME280;31928;52.104;10.030;2023-03-24T09:51:54;99097.25;;;17.68;45.73
46199;BME280;31928;52.104;10.030;2023-03-24T09:56:51;99099.94;;;17.68;46.62
46199;BME280;31928;52.104;10.030;2023-03-24T09:59:33;99113.84;;;17.62;45.70
46199;BME280;31928;52.104;10.030;2023-03-24T10:02:03;99116.31;;;17.58;45.77
46199;BME280;31928;52.104;10.030;2023-03-24T10:04:35;99100.00;;;17.63;47.15
46199;BME280;31928;52.104;10.030;2023-03-24T10:07:13;99100.00;;;17.63;47.05
46199;BME280;31928;52.104;10.030;2023-03-24T10:09:41;99092.91;;;17.67;47.39
46199;BME280;31928;52.104;10.030;2023-03-24T10:27:31;99121.00;;;17.76;46.71
46199;BME280;31928;52.104;10.030;2023-03-24T10:30:02;99128.84;;;17.78;46.32
46199;BME280;31928;52.104;10.030;2023-03-24T10:32:31;99128.25;;;17.81;44.99
46199;BME280;31928;52.104;10.030;2023-03-24T10:35:00;99122.19;;;17.89;45.46
46199;BME280;31928;52.104;10.030;2023-03-24T10:37:35;99141.94;;;17.94;44.94
46199;BME280;31928;52.104;10.030;2023-03-24T10:40:04;99133.16;;;18.02;44.63
46199;BME280;31928;52.104;10.030;2023-03-24T10:42:37;99119.81;;;18.06;44.22
46199;BME280;31928;52.104;10.030;2023-03-24T10:45:04;99132.19;;;18.11;43.17
46199;BME280;31928;52.104;10.030;2023-03-24T10:47:31;99134.28;;;18.19;45.04
46199;BME280;31928;52.104;10.030;2023-03-24T10:50:00;99145.06;;;18.24;45.33
46199;BME280;31928;52.104;10.030;2023-03-24T10:52:40;99143.69;;;18.27;45.20
46199;BME280;31928;52.104;10.030;2023-03-24T10:55:12;99139.00;;;18.32;44.96
46199;BME280;31928;52.104;10.030;2023-03-24T10:57:41;99146.50;;;18.40;45.76
46199;BME280;31928;52.104;10.030;2023-03-24T11:00:08;99161.09;;;18.44;44.03
46199;BME280;31928;52.104;10.030;2023-03-24T11:02:44;99145.97;;;18.57;44.33
46199;BME280;31928;52.104;10.030;2023-03-24T11:05:19;99156.47;;;18.63;42.51
46199;BME280;31928;52.104;10.030;2023-03-24T11:07:49;99147.88;;;18.74;43.94
46199;BME280;31928;52.104;10.030;2023-03-24T11:10:17;99162.22;;;18.80;43.83
46199;BME280;31928;52.104;10.030;2023-03-24T11:15:19;99161.00;;;18.86;42.30
46199;BME280;31928;52.104;10.030;2023-03-24T11:17:58;99144.94;;;18.89;43.50
46199;BME280;31928;52.104;10.030;2023-03-24T11:20:31;99142.72;;;18.91;44.24
46199;BME280;31928;52.104;10.030;2023-03-24T11:23:15;99143.00;;;18.90;42.59
46199;BME280;31928;52.104;10.030;2023-03-24T11:25:46;99153.50;;;18.96;43.35
46199;BME280;31928;52.104;10.030;2023-03-24T11:28:15;99159.16;;;19.00;43.38
46199;BME280;31928;52.104;10.030;2023-03-24T11:30:46;99162.31;;;19.07;42.45
46199;BME280;31928;52.104;10.030;2023-03-24T11:33:17;99138.22;;;19.19;43.13
46199;BME280;31928;52.104;10.030;2023-03-24T11:35:44;99141.97;;;19.23;40.33
46199;BME280;31928;52.104;10.030;2023-03-24T11:38:27;99142.81;;;19.36;42.85
46199;BME280;31928;52.104;10.030;2023-03-24T11:40:55;99143.72;;;19.45;44.25
46199;BME280;31928;52.104;10.030;2023-03-24T11:43:26;99139.72;;;19.56;44.59
46199;BME280;31928;52.104;10.030;2023-03-24T11:46:00;99133.06;;;19.62;42.47
46199;BME280;31928;52.104;10.030;2023-03-24T11:50:59;99135.78;;;19.76;43.69
46199;BME280;31928;52.104;10.030;2023-03-24T11:53:28;99127.22;;;19.82;44.44
46199;BME280;31928;52.104;10.030;2023-03-24T11:56:02;99122.78;;;19.86;44.79
46199;BME280;31928;52.104;10.030;2023-03-24T11:58:43;99128.44;;;19.89;44.13
46199;BME280;31928;52.104;10.030;2023-03-24T12:06:26;99131.59;;;19.96;44.63
46199;BME280;31928;52.104;10.030;2023-03-24T12:14:09;99157.47;;;19.94;42.37
46199;BME280;31928;52.104;10.030;2023-03-24T12:16:45;99168.38;;;19.94;42.34
46199;BME280;31928;52.104;10.030;2023-03-24T12:22:08;99151.56;;;19.92;42.84
46199;BME280;31928;52.104;10.030;2023-03-24T12:30:14;99193.13;;;19.79;42.20
46199;BME280;31928;52.104;10.030;2023-03-24T12:35:43;99184.25;;;19.74;41.89
46199;BME280;31928;52.104;10.030;2023-03-24T12:43:20;99195.72;;;19.57;41.37
46199;BME280;31928;52.104;10.030;2023-03-24T12:45:49;99205.56;;;19.53;41.99
46199;BME280;31928;52.104;10.030;2023-03-24T12:51:17;99192.66;;;19.45;41.99
46199;BME280;31928;52.104;10.030;2023-03-24T12:54:14;99190.53;;;19.42;41.21
46199;BME280;31928;52.104;10.030;2023-03-24T12:56:37;99191.03;;;19.44;41.73
46199;BME280;31928;52.104;10.030;2023-03-24T12:59:15;99174.44;;;19.46;41.42
46199;BME280;31928;52.104;10.030;2023-03-24T13:01:45;99166.97;;;19.51;42.91
46199;BME280;31928;52.104;10.030;2023-03-24T13:04:23;99172.34;;;19.56;42.08
46199;BME280;31928;52.104;10.030;2023-03-24T13:09:35;99156.84;;;19.70;40.88
46199;BME280;31928;52.104;10.030;2023-03-24T13:12:19;99157.75;;;19.79;42.82
46199;BME280;31928;52.104;10.030;2023-03-24T13:17:28;99149.81;;;19.83;40.85
46199;BME280;31928;52.104;10.030;2023-03-24T13:19:56;99144.56;;;19.86;41.11
46199;BME280;31928;52.104;10.030;2023-03-24T13:22:23;99138.00;;;19.87;41.05
46199;BME280;31928;52.104;10.030;2023-03-24T13:24:50;99140.44;;;19.88;41.14
46199;BME280;31928;52.104;10.030;2023-03-24T13:40:18;99146.81;;;20.11;40.03
46199;BME280;31928;52.104;10.030;2023-03-24T13:45:25;99152.03;;;20.21;41.07
46199;BME280;31928;52.104;10.030;2023-03-24T13:50:29;99159.00;;;20.13;39.77
46199;BME280;31928;52.104;10.030;2023-03-24T13:52:57;99158.59;;;20.20;40.98
46199;BME280;31928;52.104;10.030;2023-03-24T13:55:26;99158.09;;;20.18;39.66
46199;BME280;31928;52.104;10.030;2023-03-24T13:57:55;99164.31;;;20.18;39.99
46199;BME280;31928;52.104;10.030;2023-03-24T14:00:23;99164.94;;;20.15;39.55
46199;BME280;31928;52.104;10.030;2023-03-24T14:02:50;99167.34;;;20.17;40.60
46199;BME280;31928;52.104;10.030;2023-03-24T14:05:28;99154.88;;;20.16;40.40
46199;BME280;31928;52.104;10.030;2023-03-24T14:10:38;99166.25;;;20.18;39.40
46199;BME280;31928;52.104;10.030;2023-03-24T14:15:56;99160.00;;;20.17;38.89
46199;BME280;31928;52.104;10.030;2023-03-24T14:26:13;99165.16;;;20.19;40.81
46199;BME280;31928;52.104;10.030;2023-03-24T14:28:40;99157.59;;;20.16;40.46
46199;BME280;31928;52.104;10.030;2023-03-24T14:31:09;99158.09;;;20.18;41.08
46199;BME280;31928;52.104;10.030;2023-03-24T14:36:19;99151.03;;;20.17;41.00
46199;BME280;31928;52.104;10.030;2023-03-24T14:38:50;99165.56;;;20.12;40.08
46199;BME280;31928;52.104;10.030;2023-03-24T14:41:25;99167.19;;;20.13;40.66
46199;BME280;31928;52.104;10.030;2023-03-24T14:43:53;99167.59;;;20.07;39.87
46199;BME280;31928;52.104;10.030;2023-03-24T14:51:27;99175.63;;;19.98;40.25
46199;BME280;31928;52.104;10.030;2023-03-24T14:54:03;99170.03;;;19.90;38.78
46199;BME280;31928;52.104;10.030;2023-03-24T14:56:32;99179.06;;;19.91;38.41
46199;BME280;31928;52.104;10.030;2023-03-24T14:59:02;99155.44;;;19.86;38.23
46199;BME280;31928;52.104;10.030;2023-03-24T15:01:30;99159.28;;;19.85;38.62
46199;BME280;31928;52.104;10.030;2023-03-24T15:04:04;99164.53;;;19.82;38.20
46199;BME280;31928;52.104;10.030;2023-03-24T15:06:30;99172.47;;;19.78;38.59
46199;BME280;31928;52.104;10.030;2023-03-24T15:08:58;99167.94;;;19.74;37.42
46199;BME280;31928;52.104;10.030;2023-03-24T15:11:26;99171.38;;;19.79;39.93
46199;BME280;31928;52.104;10.030;2023-03-24T15:13:54;99166.13;;;19.83;40.31
46199;BME280;31928;52.104;10.030;2023-03-24T15:16:23;99160.09;;;19.86;40.24
46199;BME280;31928;52.104;10.030;2023-03-24T15:18:51;99168.56;;;19.84;39.72
46199;BME280;31928;52.104;10.030;2023-03-24T15:21:37;99149.00;;;19.82;38.41
46199;BME280;31928;52.104;10.030;2023-03-24T15:26:48;99160.47;;;19.79;38.80
46199;BME280;31928;52.104;10.030;2023-03-24T15:29:17;99153.44;;;19.78;38.99
46199;BME280;31928;52.104;10.030;2023-03-24T15:31:44;99146.88;;;19.79;39.22
46199;BME280;31928;52.104;10.030;2023-03-24T15:36:53;99128.75;;;19.88;39.28
46199;BME280;31928;52.104;10.030;2023-03-24T15:39:24;99154.84;;;19.89;38.06
46199;BME280;31928;52.104;10.030;2023-03-24T15:41:51;99137.53;;;19.85;36.48
46199;BME280;31928;52.104;10.030;2023-03-24T15:44:23;99128.75;;;19.88;37.34
46199;BME280;31928;52.104;10.030;2023-03-24T15:46:52;99138.72;;;19.79;35.82
46199;BME280;31928;52.104;10.030;2023-03-24T15:49:21;99138.63;;;19.84;38.37
46199;BME280;31928;52.104;10.030;2023-03-24T15:54:23;99139.13;;;19.73;37.38
46199;BME280;31928;52.104;10.030;2023-03-24T15:59:50;99136.28;;;19.64;38.73
46199;BME280;31928;52.104;10.030;2023-03-24T16:02:30;99130.44;;;19.57;38.88
46199;BME280;31928;52.104;10.030;2023-03-24T16:05:00;99128.63;;;19.53;38.87
46199;BME280;31928;52.104;10.030;2023-03-24T16:07:31;99123.31;;;19.48;39.34
46199;BME280;31928;52.104;10.030;2023-03-24T16:09:59;99131.25;;;19.44;38.41
46199;BME280;31928;52.104;10.030;2023-03-24T16:12:30;99128.81;;;19.43;38.84
46199;BME280;31928;52.104;10.030;2023-03-24T16:14:57;99131.84;;;19.41;39.16
46199;BME280;31928;52.104;10.030;2023-03-24T16:17:24;99124.78;;;19.40;38.52
46199;BME280;31928;52.104;10.030;2023-03-24T16:19:50;99137.88;;;19.38;38.26
46199;BME280;31928;52.104;10.030;2023-03-24T16:22:17;99138.03;;;19.28;35.82
46199;BME280;31928;52.104;10.030;2023-03-24T16:24:43;99134.03;;;19.26;37.04
46199;BME280;31928;52.104;10.030;2023-03-24T16:27:13;99167.75;;;19.07;34.84
46199;BME280;31928;52.104;10.030;2023-03-24T16:29:40;99158.06;;;19.19;37.65
46199;BME280;31928;52.104;10.030;2023-03-24T16:32:07;99166.16;;;19.06;35.76
46199;BME280;31928;52.104;10.030;2023-03-24T16:34:34;99162.31;;;19.07;37.36
46199;BME280;31928;52.104;10.030;2023-03-24T16:37:02;99171.66;;;18.82;35.10
46199;BME280;31928;52.104;10.030;2023-03-24T16:39:29;99174.03;;;18.89;35.80
46199;BME280;31928;52.104;10.030;2023-03-24T16:41:56;99175.91;;;18.88;37.00
46199;BME280;31928;52.104;10.030;2023-03-24T16:44:23;99169.69;;;18.88;38.14
46199;BME280;31928;52.104;10.030;2023-03-24T16:46:50;99170.63;;;18.78;36.93
46199;BME280;31928;52.104;10.030;2023-03-24T16:49:17;99187.50;;;18.75;37.71
46199;BME280;31928;52.104;10.030;2023-03-24T16:51:44;99185.41;;;18.72;38.26
46199;BME280;31928;52.104;10.030;2023-03-24T16:54:11;99217.03;;;18.64;38.51
46199;BME280;31928;52.104;10.030;2023-03-24T16:56:42;99242.09;;;18.56;40.17
46199;BME280;31928;52.104;10.030;2023-03-24T16:59:09;99266.81;;;18.54;40.28
46199;BME280;31928;52.104;10.030;2023-03-24T17:01:38;99273.69;;;18.47;40.10
46199;BME280;31928;52.104;10.030;2023-03-24T17:04:06;99267.66;;;18.31;40.74
46199;BME280;31928;52.104;10.030;2023-03-24T17:06:35;99277.56;;;18.17;40.29
46199;BME280;31928;52.104;10.030;2023-03-24T17:09:02;99285.03;;;18.02;40.44
46199;BME280;31928;52.104;10.030;2023-03-24T17:11:31;99280.56;;;17.88;40.87
46199;BME280;31928;52.104;10.030;2023-03-24T17:13:58;99315.94;;;17.73;40.84
46199;BME280;31928;52.104;10.030;2023-03-24T17:16:30;99315.50;;;17.61;41.09
46199;BME280;31928;52.104;10.030;2023-03-24T17:18:57;99316.16;;;17.48;41.29
46199;BME280;31928;52.104;10.030;2023-03-24T17:21:24;99305.97;;;17.35;41.12
46199;BME280;31928;52.104;10.030;2023-03-24T17:23:50;99281.06;;;17.23;41.35
46199;BME280;31928;52.104;10.030;2023-03-24T17:26:20;99279.53;;;17.12;41.54
46199;BME280;31928;52.104;10.030;2023-03-24T17:28:47;99279.59;;;17.02;41.71
46199;BME280;31928;52.104;10.030;2023-03-24T17:31:14;99275.84;;;16.93;41.91
46199;BME280;31928;52.104;10.030;2023-03-24T17:33:40;99278.34;;;16.85;41.91
46199;BME280;31928;52.104;10.030;2023-03-24T17:36:12;99277.84;;;16.78;42.07
46199;BME280;31928;52.104;10.030;2023-03-24T17:38:38;99281.94;;;16.71;42.02
46199;BME280;31928;52.104;10.030;2023-03-24T17:41:06;99283.84;;;16.65;42.43
46199;BME280;31928;52.104;10.030;2023-03-24T17:43:32;99277.66;;;16.60;42.54
46199;BME280;31928;52.104;10.030;2023-03-24T17:45:59;99292.00;;;16.55;42.48
46199;BME280;31928;52.104;10.030;2023-03-24T17:48:26;99290.16;;;16.51;42.79
46199;BME280;31928;52.104;10.030;2023-03-24T17:50:53;99284.75;;;16.46;42.72
46199;BME280;31928;52.104;10.030;2023-03-24T17:53:21;99282.91;;;16.41;42.48
46199;BME280;31928;52.104;10.030;2023-03-24T17:55:57;99280.22;;;16.36;42.94
46199;BME280;31928;52.104;10.030;2023-03-24T17:58:24;99279.66;;;16.34;42.98
46199;BME280;31928;52.104;10.030;2023-03-24T18:00:55;99281.31;;;16.30;42.96
46199;BME280;31928;52.104;10.030;2023-03-24T18:03:23;99288.06;;;16.28;42.71
46199;BME280;31928;52.104;10.030;2023-03-24T18:05:51;99280.47;;;16.25;42.99
46199;BME280;31928;52.104;10.030;2023-03-24T18:08:17;99285.34;;;16.23;43.14
46199;BME280;31928;52.104;10.030;2023-03-24T18:10:44;99276.72;;;16.21;42.78
46199;BME280;31928;52.104;10.030;2023-03-24T18:13:11;99294.28;;;16.19;42.86
46199;BME280;31928;52.104;10.030;2023-03-24T18:15:39;99287.81;;;16.15;42.98
46199;BME280;31928;52.104;10.030;2023-03-24T18:18:06;99290.78;;;16.13;42.98
46199;BME280;31928;52.104;10.030;2023-03-24T18:20:33;99281.59;;;16.09;43.22
46199;BME280;31928;52.104;10.030;2023-03-24T18:23:01;99291.88;;;16.07;42.87
46199;BME280;31928;52.104;10.030;2023-03-24T18:25:28;99288.91;;;16.04;42.96
46199;BME280;31928;52.104;10.030;2023-03-24T18:27:54;99282.97;;;16.02;43.38
46199;BME280;31928;52.104;10.030;2023-03-24T18:30:21;99285.94;;;16.00;43.38
46199;BME280;31928;52.104;10.030;2023-03-24T18:32:48;99286.50;;;15.97;43.19
46199;BME280;31928;52.104;10.030;2023-03-24T18:35:14;99287.56;;;15.96;43.12
46199;BME280;31928;52.104;10.030;2023-03-24T18:37:44;99279.22;;;15.93;43.50
46199;BME280;31928;52.104;10.030;2023-03-24T18:40:10;99291.38;;;15.90;43.51
46199;BME280;31928;52.104;10.030;2023-03-24T18:42:37;99282.72;;;15.88;43.64
46199;BME280;31928;52.104;10.030;2023-03-24T18:45:04;99288.69;;;15.85;43.45
46199;BME280;31928;52.104;10.030;2023-03-24T18:47:31;99287.34;;;15.83;44.24
46199;BME280;31928;52.104;10.030;2023-03-24T18:49:58;99287.06;;;15.84;44.33
46199;BME280;31928;52.104;10.030;2023-03-24T18:52:27;99293.25;;;15.85;44.20
46199;BME280;31928;52.104;10.030;2023-03-24T18:54:53;99304.63;;;15.87;44.06
46199;BME280;31928;52.104;10.030;2023-03-24T18:57:20;99297.31;;;15.87;43.85
46199;BME280;31928;52.104;10.030;2023-03-24T18:59:47;99301.38;;;15.85;44.08
46199;BME280;31928;52.104;10.030;2023-03-24T19:02:13;99301.66;;;15.83;43.88
46199;BME280;31928;52.104;10.030;2023-03-24T19:04:41;99306.53;;;15.81;43.92
46199;BME280;31928;52.104;10.030;2023-03-24T19:07:09;99304.63;;;15.77;44.05
46199;BME280;31928;52.104;10.030;2023-03-24T19:09:40;99293.81;;;15.72;44.00
46199;BME280;31928;52.104;10.030;2023-03-24T19:12:07;99284.34;;;15.69;44.06
46199;BME280;31928;52.104;10.030;2023-03-24T19:14:34;99286.53;;;15.67;44.35
46199;BME280;31928;52.104;10.030;2023-03-24T19:17:00;99284.38;;;15.64;44.07
46199;BME280;31928;52.104;10.030;2023-03-24T19:19:28;99287.63;;;15.62;44.38
46199;BME280;31928;52.104;10.030;2023-03-24T19:21:57;99288.16;;;15.59;44.40
46199;BME280;31928;52.104;10.030;2023-03-24T19:24:24;99289.50;;;15.56;44.80
46199;BME280;31928;52.104;10.030;2023-03-24T19:26:51;99286.25;;;15.54;44.75
46199;BME280;31928;52.104;10.030;2023-03-24T19:29:18;99291.41;;;15.51;44.86
46199;BME280;31928;52.104;10.030;2023-03-24T19:31:45;99293.03;;;15.52;44.52
46199;BME280;31928;52.104;10.030;2023-03-24T19:34:12;99290.34;;;15.47;45.21
46199;BME280;31928;52.104;10.030;2023-03-24T19:36:38;99293.31;;;15.35;45.90
46199;BME280;31928;52.104;10.030;2023-03-24T19:39:12;99291.41;;;15.41;45.25
46199;BME280;31928;52.104;10.030;2023-03-24T19:41:39;99283.31;;;15.36;45.84
46199;BME280;31928;52.104;10.030;2023-03-24T19:44:06;99294.94;;;15.36;45.81
46199;BME280;31928;52.104;10.030;2023-03-24T19:46:32;99290.31;;;15.37;45.17
46199;BME280;31928;52.104;10.030;2023-03-24T19:48:59;99292.47;;;15.35;45.34
46199;BME280;31928;52.104;10.030;2023-03-24T19:51:26;99297.06;;;15.34;45.02
46199;BME280;31928;52.104;10.030;2023-03-24T19:53:52;99289.53;;;15.31;45.31
46199;BME280;31928;52.104;10.030;2023-03-24T19:56:19;99281.41;;;15.31;45.14
46199;BME280;31928;52.104;10.030;2023-03-24T20:01:22;99275.75;;;15.28;45.14
46199;BME280;31928;52.104;10.030;2023-03-24T20:03:49;99280.34;;;15.27;45.16
46199;BME280;31928;52.104;10.030;2023-03-24T20:06:16;99284.91;;;15.27;45.17